createdAt,value
2017-09-24T00:01:07.789Z,101872.49
2017-09-24T00:03:36.528Z,101866.47
2017-09-24T00:06:05.293Z,101868.59
2017-09-24T00:08:37.703Z,101864.75
2017-09-24T00:11:06.516Z,101856.59
2017-09-24T00:13:35.229Z,101859.98
2017-09-24T00:16:03.925Z,101856.11
2017-09-24T00:21:05.415Z,101856.53
2017-09-24T00:23:34.151Z,101855.20
2017-09-24T00:26:02.785Z,101848.80
2017-09-24T00:28:33.829Z,101846.63
2017-09-24T00:31:02.787Z,101840.15
2017-09-24T00:33:31.386Z,101845.73
2017-09-24T00:36:00.182Z,101849.56
2017-09-24T00:38:28.905Z,101846.56
2017-09-24T00:40:57.674Z,101844.02
2017-09-24T00:43:26.387Z,101846.56
2017-09-24T00:45:55.135Z,101848.27
2017-09-24T00:48:23.991Z,101844.41
2017-09-24T00:50:52.703Z,101843.53
2017-09-24T00:53:21.472Z,101844.41
2017-09-24T00:55:49.900Z,101848.69
2017-09-24T00:58:18.295Z,101851.27
2017-09-24T01:00:47.049Z,101848.80
2017-09-24T01:03:15.835Z,101852.20
2017-09-24T01:05:44.581Z,101847.89
2017-09-24T01:08:13.281Z,101848.34
2017-09-24T01:10:42.088Z,101854.79
2017-09-24T01:13:10.907Z,101860.44
2017-09-24T01:15:39.636Z,101859.59
2017-09-24T01:18:08.433Z,101855.73
2017-09-24T01:20:36.853Z,101855.31
2017-09-24T01:23:05.708Z,101859.14
2017-09-24T01:25:34.149Z,101854.86
2017-09-24T01:28:02.554Z,101851.79
2017-09-24T01:30:33.065Z,101853.11
2017-09-24T01:33:01.803Z,101849.28
2017-09-24T01:35:30.305Z,101851.02
2017-09-24T01:37:58.751Z,101855.31
2017-09-24T01:40:27.504Z,101851.86
2017-09-24T01:42:56.334Z,101849.28
2017-09-24T01:45:25.091Z,101850.98
2017-09-24T01:47:53.823Z,101841.95
2017-09-24T01:50:22.679Z,101842.38
2017-09-24T01:52:51.403Z,101841.13
2017-09-24T01:55:20.223Z,101842.38
2017-09-24T01:57:49.028Z,101839.38
2017-09-24T02:00:17.794Z,101840.25
2017-09-24T02:02:46.528Z,101835.47
2017-09-24T02:05:15.350Z,101837.60
2017-09-24T02:07:44.036Z,101835.02
2017-09-24T02:10:12.830Z,101835.02
2017-09-24T02:12:41.538Z,101837.60
2017-09-24T02:15:10.301Z,101834.98
2017-09-24T02:17:39.114Z,101836.77
2017-09-24T02:20:07.872Z,101841.38
2017-09-24T02:22:36.614Z,101832.41
2017-09-24T02:25:05.409Z,101831.95
2017-09-24T02:27:34.157Z,101829.83
2017-09-24T02:30:02.923Z,101828.96
2017-09-24T02:32:31.727Z,101827.70
2017-09-24T02:35:00.470Z,101826.41
2017-09-24T02:37:29.248Z,101820.80
2017-09-24T02:39:58.046Z,101823.00
2017-09-24T02:42:26.808Z,101817.35
2017-09-24T02:44:55.629Z,101817.35
2017-09-24T02:47:24.423Z,101804.42
2017-09-24T02:49:53.171Z,101811.25
2017-09-24T02:52:21.784Z,101814.70
2017-09-24T02:54:50.653Z,101809.58
2017-09-24T02:57:19.389Z,101813.48
2017-09-24T02:59:48.124Z,101817.73
2017-09-24T03:02:16.833Z,101811.73
2017-09-24T03:04:45.619Z,101810.94
2017-09-24T03:07:14.331Z,101817.00
2017-09-24T03:09:43.105Z,101816.06
2017-09-24T03:12:11.821Z,101816.55
2017-09-24T03:14:40.536Z,101816.94
2017-09-24T03:17:09.278Z,101823.31
2017-09-24T03:19:38.061Z,101813.09
2017-09-24T03:22:06.825Z,101817.03
2017-09-24T03:24:35.582Z,101813.09
2017-09-24T03:27:04.354Z,101815.64
2017-09-24T03:29:33.077Z,101818.22
2017-09-24T03:32:01.857Z,101814.39
2017-09-24T03:34:30.610Z,101825.02
2017-09-24T03:36:59.349Z,101823.66
2017-09-24T03:39:28.101Z,101817.95
2017-09-24T03:41:56.797Z,101817.53
2017-09-24T03:44:25.538Z,101817.56
2017-09-24T03:46:54.228Z,101825.23
2017-09-24T03:49:22.982Z,101823.11
2017-09-24T03:51:51.695Z,101819.20
2017-09-24T03:54:20.405Z,101818.37
2017-09-24T03:56:49.144Z,101817.95
2017-09-24T03:59:17.857Z,101820.88
2017-09-24T04:01:46.603Z,101821.33
2017-09-24T04:04:15.330Z,101820.05
2017-09-24T04:06:44.087Z,101824.30
2017-09-24T04:09:12.834Z,101826.87
2017-09-24T04:11:41.584Z,101826.42
2017-09-24T04:14:10.314Z,101829.45
2017-09-24T04:16:39.073Z,101831.97
2017-09-24T04:19:07.817Z,101831.13
2017-09-24T04:21:36.632Z,101826.39
2017-09-24T04:24:05.353Z,101831.06
2017-09-24T04:26:34.123Z,101827.16
2017-09-24T04:29:02.889Z,101830.16
2017-09-24T04:31:31.655Z,101830.09
2017-09-24T04:34:00.366Z,101832.25
2017-09-24T04:36:29.185Z,101834.34
2017-09-24T04:38:58.002Z,101827.86
2017-09-24T04:41:26.785Z,101835.19
2017-09-24T04:43:55.508Z,101837.70
2017-09-24T04:46:24.205Z,101829.08
2017-09-24T04:48:52.944Z,101827.30
2017-09-24T04:51:21.656Z,101827.30
2017-09-24T04:53:50.411Z,101835.47
2017-09-24T04:56:18.971Z,101829.47
2017-09-24T04:58:47.725Z,101829.88
2017-09-24T05:01:16.470Z,101838.05
2017-09-24T05:03:45.221Z,101831.17
2017-09-24T05:06:14.024Z,101830.30
2017-09-24T05:08:42.795Z,101825.98
2017-09-24T05:11:11.577Z,101832.78
2017-09-24T05:13:40.287Z,101825.49
2017-09-24T05:16:09.119Z,101828.45
2017-09-24T05:18:38.487Z,101830.16
2017-09-24T05:21:07.244Z,101826.26
2017-09-24T05:23:36.006Z,101828.77
2017-09-24T05:26:04.732Z,101824.94
2017-09-24T05:28:36.096Z,101833.97
2017-09-24T05:31:04.876Z,101832.61
2017-09-24T05:33:33.656Z,101839.86
2017-09-24T05:36:02.468Z,101831.25
2017-09-24T05:38:34.310Z,101831.25
2017-09-24T05:41:03.162Z,101826.86
2017-09-24T05:43:31.968Z,101830.27
2017-09-24T05:46:00.729Z,101831.98
2017-09-24T05:48:29.420Z,101827.66
2017-09-24T05:50:58.233Z,101828.95
2017-09-24T05:53:26.945Z,101817.75
2017-09-24T05:55:55.700Z,101829.75
2017-09-24T05:58:24.430Z,101827.55
2017-09-24T06:00:53.150Z,101833.52
2017-09-24T06:03:21.933Z,101834.28
2017-09-24T06:05:50.651Z,101833.83
2017-09-24T06:08:19.381Z,101832.09
2017-09-24T06:10:47.966Z,101841.50
2017-09-24T06:13:16.547Z,101838.02
2017-09-24T06:15:45.283Z,101842.34
2017-09-24T06:18:14.097Z,101838.44
2017-09-24T06:20:42.843Z,101848.66
2017-09-24T06:23:11.564Z,101843.80
2017-09-24T06:25:40.413Z,101849.35
2017-09-24T06:28:09.166Z,101851.48
2017-09-24T06:30:37.958Z,101853.16
2017-09-24T06:33:06.740Z,101852.66
2017-09-24T06:35:39.547Z,101857.80
2017-09-24T06:38:08.183Z,101855.17
2017-09-24T06:40:36.913Z,101856.01
2017-09-24T06:43:05.705Z,101855.91
2017-09-24T06:45:34.447Z,101855.45
2017-09-24T06:48:03.211Z,101861.34
2017-09-24T06:50:32.042Z,101858.31
2017-09-24T06:53:00.807Z,101863.38
2017-09-24T06:55:29.640Z,101863.34
2017-09-24T06:57:58.395Z,101859.46
2017-09-24T07:00:27.152Z,101859.84
2017-09-24T07:02:55.944Z,101865.36
2017-09-24T07:05:24.718Z,101864.87
2017-09-24T07:07:53.504Z,101861.80
2017-09-24T07:10:22.824Z,101865.14
2017-09-24T07:12:51.545Z,101864.73
2017-09-24T07:15:20.294Z,101864.23
2017-09-24T07:17:49.038Z,101868.00
2017-09-24T07:20:17.815Z,101868.84
2017-09-24T07:22:46.617Z,101868.34
2017-09-24T07:25:15.366Z,101861.82
2017-09-24T07:27:44.177Z,101872.05
2017-09-24T07:30:12.806Z,101875.36
2017-09-24T07:32:41.624Z,101864.50
2017-09-24T07:35:10.427Z,101865.26
2017-09-24T07:37:39.114Z,101865.22
2017-09-24T07:40:07.699Z,101865.64
2017-09-24T07:42:36.511Z,101866.38
2017-09-24T07:45:05.282Z,101861.59
2017-09-24T07:47:34.004Z,101870.14
2017-09-24T07:50:02.788Z,101862.70
2017-09-24T07:52:31.535Z,101872.61
2017-09-24T07:55:00.304Z,101871.20
2017-09-24T07:57:28.929Z,101876.72
2017-09-24T07:59:57.675Z,101874.06
2017-09-24T08:02:26.493Z,101877.41
2017-09-24T08:04:55.208Z,101870.45
2017-09-24T08:07:23.962Z,101876.43
2017-09-24T08:09:52.787Z,101879.36
2017-09-24T08:12:21.581Z,101882.17
2017-09-24T08:14:50.317Z,101888.22
2017-09-24T08:17:19.042Z,101873.09
2017-09-24T08:19:47.807Z,101875.03
2017-09-24T08:22:17.936Z,101877.92
2017-09-24T08:24:46.700Z,101878.27
2017-09-24T08:27:15.474Z,101882.48
2017-09-24T08:29:44.200Z,101880.25
2017-09-24T08:32:12.952Z,101881.47
2017-09-24T08:34:41.773Z,101881.42
2017-09-24T08:37:10.529Z,101882.22
2017-09-24T08:39:39.437Z,101889.03
2017-09-24T08:42:08.279Z,101896.67
2017-09-24T08:44:37.053Z,101897.05
2017-09-24T08:47:05.821Z,101896.18
2017-09-24T08:49:34.558Z,101894.23
2017-09-24T08:52:03.345Z,101893.33
2017-09-24T08:54:32.110Z,101899.72
2017-09-24T08:57:00.915Z,101894.92
2017-09-24T08:59:29.763Z,101893.17
2017-09-24T09:01:58.626Z,101897.66
2017-09-24T09:04:27.468Z,101898.50
2017-09-24T09:06:56.298Z,101902.30
2017-09-24T09:09:25.067Z,101903.14
2017-09-24T09:11:53.863Z,101903.02
2017-09-24T09:14:22.735Z,101900.40
2017-09-24T09:16:51.574Z,101901.69
2017-09-24T09:19:20.372Z,101901.23
2017-09-24T09:21:49.247Z,101898.53
2017-09-24T09:24:18.117Z,101900.21
2017-09-24T09:26:47.034Z,101900.25
2017-09-24T09:29:18.385Z,101893.70
2017-09-24T09:31:47.270Z,101906.48
2017-09-24T09:34:27.306Z,101903.48
2017-09-24T09:36:56.235Z,101902.56
2017-09-24T09:39:25.979Z,101909.75
2017-09-24T09:41:54.993Z,101906.70
2017-09-24T09:44:36.822Z,101909.33
2017-09-24T09:47:16.776Z,101915.23
2017-09-24T09:49:45.666Z,101912.10
2017-09-24T09:52:14.544Z,101911.08
2017-09-24T09:54:43.442Z,101910.20
2017-09-24T09:57:12.289Z,101905.86
2017-09-24T09:59:41.238Z,101904.41
2017-09-24T10:02:10.131Z,101906.96
2017-09-24T10:04:39.009Z,101902.55
2017-09-24T10:07:18.859Z,101902.05
2017-09-24T10:09:58.664Z,101905.09
2017-09-24T10:12:27.307Z,101911.02
2017-09-24T10:14:56.070Z,101908.81
2017-09-24T10:17:24.779Z,101913.04
2017-09-24T10:19:53.515Z,101911.78
2017-09-24T10:22:22.429Z,101909.04
2017-09-24T10:24:51.349Z,101908.13
2017-09-24T10:27:21.538Z,101910.20
2017-09-24T10:30:01.564Z,101910.47
2017-09-24T10:32:30.304Z,101910.77
2017-09-24T10:34:59.032Z,101908.19
2017-09-24T10:37:27.955Z,101912.78
2017-09-24T10:39:56.827Z,101905.89
2017-09-24T10:42:25.697Z,101910.12
2017-09-24T10:44:54.663Z,101902.27
2017-09-24T10:47:23.454Z,101901.58
2017-09-24T10:49:52.381Z,101905.30
2017-09-24T10:52:21.225Z,101901.83
2017-09-24T10:54:50.060Z,101903.97
2017-09-24T10:57:18.963Z,101908.26
2017-09-24T10:59:47.846Z,101908.47
2017-09-24T11:02:16.740Z,101913.08
2017-09-24T11:04:46.263Z,101918.80
2017-09-24T11:07:15.137Z,101914.50
2017-09-24T11:09:44.854Z,101919.64
2017-09-24T11:12:13.758Z,101915.09
2017-09-24T11:14:42.642Z,101917.18
2017-09-24T11:17:11.563Z,101914.17
2017-09-24T11:19:40.441Z,101913.55
2017-09-24T11:22:09.368Z,101916.05
2017-09-24T11:24:38.358Z,101919.02
2017-09-24T11:27:07.386Z,101924.99
2017-09-24T11:29:36.278Z,101924.08
2017-09-24T11:32:05.063Z,101930.43
2017-09-24T11:34:35.031Z,101934.36
2017-09-24T11:37:03.854Z,101936.31
2017-09-24T11:39:32.811Z,101929.27
2017-09-24T11:42:01.658Z,101930.97
2017-09-24T11:44:30.591Z,101926.97
2017-09-24T11:46:59.587Z,101930.77
2017-09-24T11:49:29.427Z,101929.55
2017-09-24T11:51:58.482Z,101931.55
2017-09-24T11:54:27.368Z,101929.34
2017-09-24T11:56:58.134Z,101931.52
2017-09-24T11:59:27.064Z,101930.39
2017-09-24T12:01:56.008Z,101930.09
2017-09-24T12:04:24.890Z,101933.90
2017-09-24T12:06:54.760Z,101940.25
2017-09-24T12:09:23.675Z,101938.91
2017-09-24T12:11:52.562Z,101942.34
2017-09-24T12:14:21.486Z,101941.39
2017-09-24T12:16:50.448Z,101936.20
2017-09-24T12:19:19.298Z,101944.34
2017-09-24T12:21:48.275Z,101936.20
2017-09-24T12:24:17.192Z,101943.92
2017-09-24T12:26:46.083Z,101937.28
2017-09-24T12:29:14.977Z,101942.84
2017-09-24T12:31:43.702Z,101935.73
2017-09-24T12:34:12.629Z,101945.60
2017-09-24T12:36:41.577Z,101944.69
2017-09-24T12:39:10.545Z,101943.80
2017-09-24T12:41:40.354Z,101938.08
2017-09-24T12:44:09.272Z,101939.28
2017-09-24T12:46:41.834Z,101935.69
2017-09-24T12:49:10.867Z,101931.72
2017-09-24T12:51:39.828Z,101928.58
2017-09-24T12:54:08.712Z,101934.09
2017-09-24T12:56:37.774Z,101928.70
2017-09-24T12:59:06.627Z,101927.73
2017-09-24T13:01:36.827Z,101922.42
2017-09-24T13:04:08.631Z,101913.62
2017-09-24T13:06:37.482Z,101912.95
2017-09-24T13:09:06.045Z,101909.31
2017-09-24T13:11:34.992Z,101911.68
2017-09-24T13:14:04.059Z,101904.19
2017-09-24T13:16:33.009Z,101901.42
2017-09-24T13:19:01.894Z,101901.90
2017-09-24T13:21:30.898Z,101904.55
2017-09-24T13:23:59.890Z,101901.36
2017-09-24T13:26:28.747Z,101908.08
2017-09-24T13:28:57.609Z,101911.87
2017-09-24T13:31:26.392Z,101917.30
2017-09-24T13:33:55.273Z,101914.62
2017-09-24T13:36:24.279Z,101912.77
2017-09-24T13:38:53.147Z,101916.02
2017-09-24T13:41:21.864Z,101915.15
2017-09-24T13:43:50.768Z,101910.20
2017-09-24T13:46:19.704Z,101918.77
2017-09-24T13:48:48.529Z,101916.12
2017-09-24T13:51:17.227Z,101919.13
2017-09-24T13:53:46.175Z,101922.05
2017-09-24T13:56:15.048Z,101922.84
2017-09-24T13:58:43.942Z,101921.97
2017-09-24T14:01:12.696Z,101919.33
2017-09-24T14:03:41.643Z,101921.70
2017-09-24T14:06:14.208Z,101922.06
2017-09-24T14:08:44.169Z,101923.22
2017-09-24T14:11:14.325Z,101917.20
2017-09-24T14:13:43.357Z,101915.67
2017-09-24T14:16:12.262Z,101916.22
2017-09-24T14:18:41.026Z,101908.39
2017-09-24T14:21:09.967Z,101905.61
2017-09-24T14:23:38.913Z,101907.19
2017-09-24T14:26:08.187Z,101912.70
2017-09-24T14:28:37.660Z,101913.86
2017-09-24T14:31:07.356Z,101915.77
2017-09-24T14:33:36.107Z,101914.00
2017-09-24T14:36:05.007Z,101913.44
2017-09-24T14:38:37.055Z,101917.75
2017-09-24T14:41:05.961Z,101911.58
2017-09-24T14:43:35.848Z,101907.73
2017-09-24T14:46:04.664Z,101908.80
2017-09-24T14:48:36.975Z,101909.55
2017-09-24T14:51:09.588Z,101914.64
2017-09-24T14:53:39.527Z,101914.27
2017-09-24T14:56:10.332Z,101923.16
2017-09-24T14:58:40.465Z,101915.80
2017-09-24T15:01:11.034Z,101919.92
2017-09-24T15:03:39.797Z,101924.70
2017-09-24T15:06:16.120Z,101920.48
2017-09-24T15:08:44.937Z,101923.03
2017-09-24T15:11:13.832Z,101921.36
2017-09-24T15:13:42.526Z,101932.48
2017-09-24T15:16:11.248Z,101933.56
2017-09-24T15:18:39.882Z,101933.97
2017-09-24T15:21:08.673Z,101931.47
2017-09-24T15:23:37.643Z,101935.92
2017-09-24T15:26:06.472Z,101931.52
2017-09-24T15:28:37.940Z,101928.45
2017-09-24T15:31:06.699Z,101933.92
2017-09-24T15:33:36.101Z,101934.76
2017-09-24T15:36:05.702Z,101933.83
2017-09-24T15:38:37.469Z,101939.53
2017-09-24T15:41:06.436Z,101940.38
2017-09-24T15:43:35.388Z,101936.43
2017-09-24T15:46:04.084Z,101938.10
2017-09-24T15:48:36.555Z,101927.89
2017-09-24T15:51:05.368Z,101936.11
2017-09-24T15:53:33.974Z,101939.64
2017-09-24T15:56:02.659Z,101931.42
2017-09-24T15:58:36.262Z,101937.91
2017-09-24T16:01:05.049Z,101938.16
2017-09-24T16:03:33.847Z,101941.63
2017-09-24T16:06:02.616Z,101937.83
2017-09-24T16:08:35.634Z,101943.53
2017-09-24T16:11:04.312Z,101938.58
2017-09-24T16:13:34.587Z,101936.03
2017-09-24T16:16:03.434Z,101937.33
2017-09-24T16:18:35.481Z,101940.80
2017-09-24T16:21:04.258Z,101936.67
2017-09-24T16:23:41.615Z,101943.30
2017-09-24T16:26:15.331Z,101943.06
2017-09-24T16:28:49.960Z,101948.41
2017-09-24T16:31:18.627Z,101949.70
2017-09-24T16:33:49.456Z,101947.66
2017-09-24T16:36:19.072Z,101944.73
2017-09-24T16:38:48.851Z,101950.56
2017-09-24T16:41:32.502Z,101949.33
2017-09-24T16:44:03.817Z,101950.71
2017-09-24T16:49:10.471Z,101955.70
2017-09-24T16:51:45.837Z,101955.42
2017-09-24T16:54:24.795Z,101953.02
2017-09-24T16:57:02.706Z,101952.64
2017-09-24T16:59:38.928Z,101951.02
2017-09-24T17:02:15.267Z,101947.72
2017-09-24T17:04:47.481Z,101949.15
2017-09-24T17:07:21.794Z,101952.34
2017-09-24T17:09:52.801Z,101949.00
2017-09-24T17:12:25.644Z,101947.97
2017-09-24T17:15:03.534Z,101946.77
2017-09-24T17:17:39.779Z,101956.02
2017-09-24T17:20:11.566Z,101960.51
2017-09-24T17:22:43.128Z,101961.06
2017-09-24T17:25:15.646Z,101960.73
2017-09-24T17:27:46.618Z,101960.79
2017-09-24T17:30:17.579Z,101958.37
2017-09-24T17:32:49.704Z,101967.16
2017-09-24T17:35:18.990Z,101974.23
2017-09-24T17:37:52.503Z,101975.66
2017-09-24T17:40:22.370Z,101968.09
2017-09-24T17:42:53.177Z,101969.98
2017-09-24T17:45:25.809Z,101967.05
2017-09-24T17:47:55.919Z,101975.47
2017-09-24T17:50:30.209Z,101967.78
2017-09-24T17:53:09.034Z,101974.01
2017-09-24T17:55:43.951Z,101970.70
2017-09-24T18:00:58.658Z,101979.53
2017-09-24T18:03:30.140Z,101978.37
2017-09-24T18:06:13.589Z,101984.55
2017-09-24T18:08:46.671Z,101985.14
2017-09-24T18:11:29.554Z,101983.97
2017-09-24T18:14:07.665Z,101993.09
2017-09-24T18:16:46.013Z,101991.91
2017-09-24T18:19:17.583Z,101997.64
2017-09-24T18:21:50.755Z,102002.11
2017-09-24T18:24:23.977Z,102001.73
2017-09-24T18:26:54.878Z,102001.82
2017-09-24T18:29:27.596Z,102001.02
2017-09-24T18:32:03.463Z,102007.58
2017-09-24T18:34:39.215Z,102002.52
2017-09-24T18:37:14.056Z,102003.06
2017-09-24T18:39:43.767Z,102002.69
2017-09-24T18:42:27.495Z,102004.11
2017-09-24T18:47:55.846Z,101999.75
2017-09-24T18:50:36.380Z,101992.98
2017-09-24T18:53:19.083Z,101996.15
2017-09-24T18:55:56.183Z,101993.34
2017-09-24T18:58:35.046Z,101991.34
2017-09-24T19:01:17.036Z,101996.25
2017-09-24T19:03:53.808Z,102004.19
2017-09-24T19:06:29.028Z,102007.36
2017-09-24T19:09:02.058Z,102007.10
2017-09-24T19:11:40.466Z,102008.52
2017-09-24T19:16:53.921Z,102007.08
2017-09-24T19:19:29.758Z,102005.14
2017-09-24T19:24:51.111Z,102008.88
2017-09-24T19:27:21.460Z,102012.08
2017-09-24T19:29:53.731Z,102015.20
2017-09-24T19:32:26.739Z,102012.77
2017-09-24T19:35:02.940Z,102012.47
2017-09-24T19:37:44.201Z,102009.16
2017-09-24T19:40:22.813Z,102005.84
2017-09-24T19:42:52.321Z,102006.42
2017-09-24T19:45:25.101Z,102007.41
2017-09-24T19:48:00.215Z,102011.44
2017-09-24T19:50:38.018Z,102007.75
2017-09-24T19:53:12.442Z,102011.67
2017-09-24T19:55:52.816Z,102020.49
2017-09-24T19:58:34.009Z,102018.02
2017-09-24T20:01:09.313Z,102025.09
2017-09-24T20:03:43.856Z,102021.33
2017-09-24T20:09:09.483Z,102015.99
2017-09-24T20:11:49.554Z,102018.69
2017-09-24T20:14:21.264Z,102018.77
2017-09-24T20:19:45.215Z,102029.47
2017-09-24T20:22:24.215Z,102026.09
2017-09-24T20:25:03.791Z,102027.49
2017-09-24T20:30:51.461Z,102028.20
2017-09-24T20:33:25.298Z,102029.98
2017-09-24T20:35:57.929Z,102029.60
2017-09-24T20:38:31.310Z,102026.22
2017-09-24T20:41:05.184Z,102025.48
2017-09-24T20:43:40.451Z,102029.05
2017-09-24T20:46:32.473Z,102026.50
2017-09-24T20:49:24.694Z,102017.97
2017-09-24T20:52:16.525Z,102023.60
2017-09-24T20:55:05.100Z,102027.20
2017-09-24T20:57:49.670Z,102028.11
2017-09-24T21:00:36.287Z,102029.41
2017-09-24T21:03:21.578Z,102024.80
2017-09-24T21:06:06.817Z,102023.09
2017-09-24T21:17:31.262Z,102019.95
2017-09-24T21:23:16.013Z,102024.45
2017-09-24T21:31:40.241Z,102034.55
2017-09-24T21:34:25.969Z,102031.58
2017-09-24T21:37:11.099Z,102032.52
2017-09-24T21:39:57.929Z,102038.25
2017-09-24T21:42:39.216Z,102044.70
2017-09-24T21:45:25.482Z,102040.55
2017-09-24T21:48:10.737Z,102042.68
2017-09-24T21:50:56.457Z,102041.42
2017-09-24T21:53:44.623Z,102045.78
2017-09-24T21:56:31.656Z,102047.98
2017-09-24T21:59:12.162Z,102042.81
2017-09-24T22:01:52.431Z,102039.53
2017-09-24T22:04:32.277Z,102036.42
2017-09-24T22:07:12.719Z,102041.31
2017-09-24T22:09:53.911Z,102041.41
2017-09-24T22:12:36.387Z,102043.50
2017-09-24T22:15:18.617Z,102041.76
2017-09-24T22:18:01.816Z,102043.47
2017-09-24T22:20:42.100Z,102043.83
2017-09-24T22:23:23.081Z,102045.88
2017-09-24T22:26:04.774Z,102043.97
2017-09-24T22:28:48.943Z,102040.52
2017-09-24T22:31:30.009Z,102043.86
2017-09-24T22:34:05.551Z,102047.67
2017-09-24T22:36:38.052Z,102045.05
2017-09-24T22:39:11.633Z,102047.95
2017-09-24T22:41:43.791Z,102049.53
2017-09-24T22:44:16.125Z,102047.75
2017-09-24T22:46:47.047Z,102049.32
2017-09-24T22:49:18.998Z,102050.55
2017-09-24T22:52:02.175Z,102048.20
2017-09-24T22:54:35.706Z,102052.08
2017-09-24T22:57:06.787Z,102052.39
2017-09-24T22:59:42.476Z,102046.31
2017-09-24T23:02:12.673Z,102051.38
2017-09-24T23:04:44.267Z,102050.05
2017-09-24T23:07:19.085Z,102039.22
2017-09-24T23:09:54.745Z,102034.44
2017-09-24T23:12:26.910Z,102035.66
2017-09-24T23:14:59.481Z,102036.45
2017-09-24T23:17:31.443Z,102039.81
2017-09-24T23:20:08.165Z,102038.91
2017-09-24T23:22:41.249Z,102038.80
2017-09-24T23:25:11.433Z,102039.67
2017-09-24T23:27:43.691Z,102036.14
2017-09-24T23:30:13.328Z,102039.11
2017-09-24T23:32:42.891Z,102038.23
2017-09-24T23:35:12.664Z,102030.86
2017-09-24T23:37:41.420Z,102028.23
2017-09-24T23:40:10.160Z,102030.75
2017-09-24T23:42:38.915Z,102036.34
2017-09-24T23:45:07.771Z,102037.17
2017-09-24T23:47:36.467Z,102041.44
2017-09-24T23:50:05.259Z,102043.98
2017-09-24T23:52:33.983Z,102037.48
2017-09-24T23:55:02.853Z,102032.73
2017-09-24T23:57:31.681Z,102032.31
